createdAt,value
2023-12-26T00:04:09.077Z,59.86
2023-12-26T00:09:14.120Z,63.42
2023-12-26T00:14:18.454Z,61.59
2023-12-26T00:19:21.591Z,59.69
2023-12-26T00:24:24.548Z,60.85
2023-12-26T00:29:28.066Z,63.45
2023-12-26T00:34:31.191Z,60.78
2023-12-26T00:39:34.078Z,59.85
2023-12-26T00:44:36.905Z,63.86
2023-12-26T00:49:39.775Z,61.82
2023-12-26T00:54:42.815Z,59.84
2023-12-26T00:59:47.096Z,60.52
2023-12-26T01:04:50.071Z,63.61
2023-12-26T01:09:52.940Z,60.81
2023-12-26T01:14:55.807Z,59.10
2023-12-26T01:19:58.946Z,63.16
2023-12-26T01:25:01.860Z,63.11
2023-12-26T01:30:05.966Z,60.66
2023-12-26T01:40:44.419Z,63.13
2023-12-26T01:45:47.119Z,63.32
2023-12-26T01:50:50.022Z,60.98
2023-12-26T01:55:53.162Z,59.89
2023-12-26T02:00:55.899Z,60.43
2023-12-26T02:06:01.144Z,64.52
2023-12-26T02:11:04.647Z,62.85
2023-12-26T02:16:14.345Z,61.27
2023-12-26T02:21:17.155Z,59.79
2023-12-26T02:26:19.882Z,60.00
2023-12-26T02:31:24.315Z,64.51
2023-12-26T02:36:27.316Z,62.90
2023-12-26T02:41:29.958Z,61.42
2023-12-26T02:46:32.614Z,59.35
2023-12-26T02:51:36.852Z,62.59
2023-12-26T02:56:39.765Z,65.24
2023-12-26T03:01:45.195Z,62.37
2023-12-26T03:06:47.872Z,60.66
2023-12-26T03:11:50.687Z,59.27
2023-12-26T03:16:53.517Z,63.89
2023-12-26T03:21:56.155Z,63.17
2023-12-26T03:26:58.954Z,62.12
2023-12-26T03:32:02.166Z,59.80
2023-12-26T03:37:05.667Z,60.96
2023-12-26T03:42:08.671Z,65.71
2023-12-26T03:47:11.966Z,64.42
2023-12-26T03:52:14.784Z,62.26
2023-12-26T03:57:17.608Z,61.46
2023-12-26T04:02:20.575Z,59.41
2023-12-26T04:07:23.229Z,62.04
2023-12-26T04:12:26.109Z,64.47
2023-12-26T04:17:28.848Z,62.21
2023-12-26T04:22:31.537Z,60.92
2023-12-26T04:27:34.311Z,60.50
2023-12-26T04:32:37.084Z,59.53
2023-12-26T04:37:39.909Z,64.21
2023-12-26T04:42:43.269Z,64.30
2023-12-26T04:47:46.043Z,62.21
2023-12-26T04:52:49.154Z,60.59
2023-12-26T04:57:51.831Z,59.41
2023-12-26T05:02:54.714Z,63.96
2023-12-26T05:07:58.183Z,64.08
2023-12-26T05:13:01.044Z,63.15
2023-12-26T05:18:05.657Z,63.17
2023-12-26T05:23:09.352Z,62.24
2023-12-26T05:28:12.143Z,63.39
2023-12-26T05:33:15.294Z,63.21
2023-12-26T05:38:18.055Z,63.23
2023-12-26T05:43:20.720Z,61.87
2023-12-26T05:48:24.351Z,62.50
2023-12-26T05:53:30.755Z,62.17
2023-12-26T05:58:33.449Z,62.10
2023-12-26T06:03:36.232Z,63.01
2023-12-26T06:08:42.531Z,61.96
2023-12-26T06:13:45.617Z,61.65
2023-12-26T06:18:48.462Z,63.18
2023-12-26T06:23:51.246Z,63.60
2023-12-26T06:28:54.006Z,62.47
2023-12-26T06:33:56.769Z,62.48
2023-12-26T06:39:02.404Z,63.51
2023-12-26T06:44:05.366Z,64.70
2023-12-26T06:49:08.483Z,65.43
2023-12-26T06:54:12.833Z,65.12
2023-12-26T06:59:15.570Z,64.82
2023-12-26T07:04:18.436Z,64.42
2023-12-26T07:09:21.277Z,63.41
2023-12-26T07:14:23.956Z,63.12
2023-12-26T07:19:26.781Z,62.71
2023-12-26T07:24:29.813Z,63.55
2023-12-26T07:29:32.937Z,63.72
2023-12-26T07:34:35.710Z,63.93
2023-12-26T07:39:38.690Z,64.78
2023-12-26T07:44:41.821Z,65.70
2023-12-26T07:49:45.182Z,66.69
2023-12-26T07:54:48.619Z,68.28
2023-12-26T07:59:51.478Z,69.87
2023-12-26T08:04:54.127Z,70.30
2023-12-26T08:09:57.230Z,70.55
2023-12-26T08:14:59.867Z,70.38
2023-12-26T08:20:02.759Z,69.90
2023-12-26T08:25:05.944Z,69.85
2023-12-26T08:30:09.256Z,70.33
2023-12-26T08:35:12.447Z,70.86
2023-12-26T08:40:15.136Z,70.52
2023-12-26T08:45:19.240Z,70.63
2023-12-26T08:50:21.906Z,70.77
2023-12-26T08:55:25.032Z,71.69
2023-12-26T09:00:27.728Z,72.38
2023-12-26T09:05:30.456Z,70.74
2023-12-26T09:10:33.171Z,70.87
2023-12-26T09:15:35.826Z,69.70
2023-12-26T09:20:39.029Z,69.20
2023-12-26T09:25:42.874Z,69.66
2023-12-26T09:30:45.603Z,69.47
2023-12-26T09:35:48.656Z,68.86
2023-12-26T09:40:51.362Z,69.24
2023-12-26T09:45:54.163Z,70.88
2023-12-26T09:50:58.971Z,71.28
2023-12-26T09:56:02.773Z,70.97
2023-12-26T10:01:05.895Z,71.16
2023-12-26T10:06:09.622Z,71.49
2023-12-26T10:11:13.790Z,70.67
2023-12-26T10:16:16.826Z,70.42
2023-12-26T10:21:19.856Z,70.55
2023-12-26T10:26:22.952Z,70.14
2023-12-26T10:31:26.820Z,70.28
2023-12-26T10:36:29.830Z,69.72
2023-12-26T10:41:32.767Z,70.31
2023-12-26T10:46:35.462Z,70.56
2023-12-26T10:51:44.555Z,71.05
2023-12-26T10:56:51.353Z,70.88
2023-12-26T11:02:00.445Z,70.47
2023-12-26T11:07:10.137Z,69.63
2023-12-26T11:12:12.867Z,67.00
2023-12-26T11:17:16.017Z,66.66
2023-12-26T11:22:19.332Z,66.35
2023-12-26T11:27:22.243Z,66.54
2023-12-26T11:32:25.234Z,66.85
2023-12-26T11:37:28.189Z,66.79
2023-12-26T11:42:31.019Z,66.24
2023-12-26T11:47:33.805Z,66.06
2023-12-26T11:52:36.776Z,67.27
2023-12-26T11:57:39.815Z,68.51
2023-12-26T12:02:42.698Z,68.73
2023-12-26T12:08:05.922Z,67.96
2023-12-26T12:13:08.649Z,67.49
2023-12-26T12:18:20.266Z,67.48
2023-12-26T12:23:23.157Z,68.15
2023-12-26T12:28:25.821Z,65.15
2023-12-26T12:33:28.779Z,63.45
2023-12-26T12:38:32.383Z,62.89
2023-12-26T12:43:39.934Z,62.86
2023-12-26T12:48:42.665Z,62.74
2023-12-26T12:53:46.015Z,62.78
2023-12-26T12:58:49.048Z,62.34
2023-12-26T13:03:52.063Z,62.33
2023-12-26T13:08:54.851Z,62.62
2023-12-26T13:13:57.782Z,62.64
2023-12-26T13:19:00.590Z,62.78
2023-12-26T13:24:03.447Z,62.62
2023-12-26T13:29:07.690Z,62.71
2023-12-26T13:34:10.818Z,59.91
2023-12-26T13:39:13.581Z,60.62
2023-12-26T13:44:16.666Z,61.81
2023-12-26T13:49:19.506Z,58.31
2023-12-26T13:54:22.506Z,60.33
2023-12-26T13:59:25.942Z,62.75
2023-12-26T14:04:29.531Z,61.48
2023-12-26T14:09:32.427Z,59.88
2023-12-26T14:14:35.552Z,59.87
2023-12-26T14:19:38.398Z,63.67
2023-12-26T14:24:41.494Z,62.36
2023-12-26T14:29:44.245Z,61.50
2023-12-26T14:34:50.373Z,60.57
2023-12-26T14:39:53.439Z,60.32
2023-12-26T14:44:56.140Z,60.51
2023-12-26T14:49:58.994Z,59.97
2023-12-26T14:55:01.663Z,62.86
2023-12-26T15:00:05.694Z,62.70
2023-12-26T15:05:10.391Z,60.48
2023-12-26T15:10:13.603Z,59.38
2023-12-26T15:15:16.339Z,61.55
2023-12-26T15:20:19.767Z,62.45
2023-12-26T15:25:22.498Z,60.29
2023-12-26T15:30:25.377Z,60.06
2023-12-26T15:35:28.341Z,63.36
2023-12-26T15:40:30.994Z,61.22
2023-12-26T15:45:33.692Z,59.66
2023-12-26T15:50:37.537Z,62.04
2023-12-26T15:55:40.388Z,62.09
2023-12-26T16:00:43.222Z,59.88
2023-12-26T16:05:46.018Z,60.17
2023-12-26T16:10:54.785Z,63.80
2023-12-26T16:15:57.580Z,63.20
2023-12-26T16:21:02.345Z,62.36
2023-12-26T16:26:06.423Z,61.92
2023-12-26T16:31:09.290Z,61.95
2023-12-26T16:36:13.140Z,61.03
2023-12-26T16:41:15.970Z,61.45
2023-12-26T16:46:18.678Z,61.44
2023-12-26T16:51:21.589Z,62.14
2023-12-26T16:56:24.321Z,62.41
2023-12-26T17:01:27.015Z,62.52
2023-12-26T17:06:30.197Z,62.00
2023-12-26T17:11:33.060Z,62.89
2023-12-26T17:16:35.848Z,63.82
2023-12-26T17:21:42.080Z,63.96
2023-12-26T17:26:44.855Z,64.00
2023-12-26T17:31:55.581Z,63.58
2023-12-26T17:36:58.297Z,63.50
2023-12-26T17:42:01.135Z,63.94
2023-12-26T17:47:06.143Z,64.67
2023-12-26T17:52:09.096Z,65.17
2023-12-26T17:57:12.089Z,65.41
2023-12-26T18:02:15.029Z,65.67
2023-12-26T18:07:18.037Z,65.63
2023-12-26T18:12:20.733Z,65.98
2023-12-26T18:17:23.876Z,65.25
2023-12-26T18:22:26.652Z,64.55
2023-12-26T18:27:30.042Z,63.87
2023-12-26T18:32:32.944Z,62.98
2023-12-26T18:37:36.012Z,63.23
2023-12-26T18:42:38.729Z,63.34
2023-12-26T18:47:44.004Z,63.89
2023-12-26T18:52:47.166Z,64.15
2023-12-26T18:57:50.128Z,64.07
2023-12-26T19:02:52.891Z,64.75
2023-12-26T19:07:56.063Z,64.52
2023-12-26T19:13:01.995Z,64.63
2023-12-26T19:18:07.170Z,64.68
2023-12-26T19:23:10.509Z,64.51
2023-12-26T19:28:13.321Z,64.31
2023-12-26T19:33:16.456Z,63.52
2023-12-26T19:38:21.300Z,63.64
2023-12-26T19:43:24.728Z,64.05
2023-12-26T19:48:28.035Z,63.53
2023-12-26T19:53:30.965Z,64.14
2023-12-26T19:58:34.541Z,64.16
2023-12-26T20:03:37.402Z,63.98
2023-12-26T20:08:40.056Z,63.93
2023-12-26T20:13:43.064Z,64.04
2023-12-26T20:18:45.873Z,64.27
2023-12-26T20:23:49.394Z,64.00
2023-12-26T20:28:52.465Z,64.17
2023-12-26T20:33:55.573Z,63.73
2023-12-26T20:38:58.801Z,63.99
2023-12-26T20:44:01.502Z,63.73
2023-12-26T20:49:04.919Z,63.10
2023-12-26T20:54:08.657Z,62.54
2023-12-26T20:59:12.252Z,62.61
2023-12-26T21:04:15.521Z,62.39
2023-12-26T21:09:19.214Z,62.61
2023-12-26T21:14:21.917Z,62.56
2023-12-26T21:19:24.602Z,63.19
2023-12-26T21:24:27.424Z,63.08
2023-12-26T21:29:30.319Z,62.43
2023-12-26T21:34:36.594Z,62.67
2023-12-26T21:39:40.812Z,62.48
2023-12-26T21:44:46.395Z,63.57
2023-12-26T21:49:52.490Z,64.01
2023-12-26T21:54:56.466Z,64.10
2023-12-26T21:59:59.155Z,64.24
2023-12-26T22:05:02.076Z,64.33
2023-12-26T22:10:05.198Z,64.14
2023-12-26T22:15:16.540Z,63.82
2023-12-26T22:20:24.121Z,64.32
2023-12-26T22:25:26.934Z,64.74
2023-12-26T22:30:32.950Z,64.23
2023-12-26T22:35:38.702Z,64.26
2023-12-26T22:40:41.443Z,63.84
2023-12-26T22:45:44.197Z,63.36
2023-12-26T22:50:46.892Z,63.23
2023-12-26T22:55:49.857Z,62.86
2023-12-26T23:00:53.373Z,62.53
2023-12-26T23:05:56.862Z,61.79
2023-12-26T23:10:59.535Z,62.23
2023-12-26T23:16:06.496Z,62.96
2023-12-26T23:21:16.373Z,62.76
2023-12-26T23:26:19.800Z,62.76
2023-12-26T23:31:23.418Z,62.04
2023-12-26T23:36:26.208Z,61.79
2023-12-26T23:41:29.398Z,62.28
2023-12-26T23:46:32.206Z,62.65
2023-12-26T23:51:35.952Z,63.93
2023-12-26T23:56:39.185Z,65.14
